Vestborg — E5U2070 — position and weather

sailwx.info

Track history (hours):
 
Tides and Currents Weather Stations Pressure Air Temp Water Temp Dewpoint Dewpoint Depression Visibility Wind Speed Wind Dir Waves Ship Positions

Vestborg

Last reported at 2014-Nov-26 22:34 UTC. Time now 2014-Nov-28 18:08 UTC.
Position N 64°52' E 011°16'.

Length 66 m; draft 3.5 m.

Type: Cargo ship. MMSI: 518120000.

Date/timePositionNaut miles runAvg speedWind from/ knotsBaromVisibWave heightAir tempDewpointWater temp
2014-Nov-26 22:34N 64°52' E 011°16'8 8.2
2014-Nov-26 21:31N 64°57' E 011°31'91 8.3
2014-Nov-26 10:34N 66°21' E 012°57'9 9.0
2014-Nov-26 09:31N 66°30' E 012°59'2 0.1
2014-Nov-25 09:25N 66°29' E 012°59'8 9.0
2014-Nov-25 08:32N 66°21' E 012°58'93 8.5
2014-Nov-24 21:34N 64°56' E 011°25'371 7.7
2014-Nov-22 21:33N 59°27' E 005°14'9 8.3
2014-Nov-22 20:29N 59°19' E 005°20'8 9.0
2014-Nov-22 19:33N 59°11' E 005°22'9 8.7
2014-Nov-22 18:33N 59°02' E 005°20'9 9.2
2014-Nov-22 17:33N 58°53' E 005°23'11 8.9
2014-Nov-22 16:22N 58°42' E 005°27'12 9.5
2014-Nov-22 15:05N 58°32' E 005°38'5 9.5
2014-Nov-22 14:33N 58°28' E 005°45'8 8.5
2014-Nov-22 13:34N 58°24' E 005°60'3 2.7
2014-Nov-22 12:33N 58°27' E 005°60'0 0.0
2014-Nov-22 11:33N 58°27' E 005°60'0 0.0
2014-Nov-22 10:34N 58°27' E 005°60'0 0.0
2014-Nov-22 09:33N 58°27' E 005°60'0 0.0
2014-Nov-22 08:34N 58°27' E 005°60'0 0.0
2014-Nov-22 07:34N 58°27' E 005°60'0 0.0
2014-Nov-22 06:34N 58°27' E 005°60'0 0.0
2014-Nov-22 05:34N 58°27' E 005°60'0 0.0
2014-Nov-22 04:33N 58°27' E 005°60'0 0.0
2014-Nov-22 03:33N 58°27' E 005°60'0 0.0
2014-Nov-22 02:33N 58°27' E 005°60'0 0.0
2014-Nov-22 01:33N 58°27' E 005°60'0 0.0
2014-Nov-22 00:33N 58°27' E 005°60'0 0.0
2014-Nov-21 23:33N 58°27' E 005°60'0 0.0
2014-Nov-21 22:34N 58°27' E 005°60'0 0.0
2014-Nov-21 21:33N 58°27' E 005°60'0 0.0
2014-Nov-21 20:34N 58°27' E 005°60'0 0.0
2014-Nov-21 19:33N 58°27' E 005°60'0 0.0
2014-Nov-21 18:33N 58°27' E 005°60'0 0.0
2014-Nov-21 17:34N 58°27' E 005°60'0 0.4
2014-Nov-21 16:34N 58°27' E 005°59'9 8.9
2014-Nov-21 15:33N 58°19' E 006°07'8 7.9
2014-Nov-21 14:33N 58°13' E 006°17'9 8.9
2014-Nov-21 13:33N 58°07' E 006°29'56 8.9
2014-Nov-21 07:18N 58°04' E 008°14'810.5
2014-Nov-21 06:33N 58°08' E 008°27'1110.8
2014-Nov-21 05:33N 58°14' E 008°44'  
2014-Nov-18 17:25N 58°47' E 010°47'7 8.2
2014-Nov-18 16:33N 58°41' E 010°50'9 8.5
2014-Nov-18 15:33N 58°32' E 010°53'9 9.1
2014-Nov-18 14:33N 58°23' E 010°58'9 9.3
2014-Nov-18 13:33N 58°14' E 011°01'30 4.1
2014-Nov-18 06:20N 57°46' E 010°42'  
Track history (hours):
 
Tides and Currents Weather Stations Pressure Air Temp Water Temp Dewpoint Dewpoint Depression Visibility Wind Speed Wind Dir Waves Ship Positions

Vestborg

Last reported at 2014-Nov-26 22:34 UTC. Time now 2014-Nov-28 18:08 UTC.
Position N 64°52' E 011°16'.

Length 66 m; draft 3.5 m.

Type: Cargo ship. MMSI: 518120000.

Date/timePositionNaut miles runAvg speedWind from/ knotsBaromVisibWave heightAir tempDewpointWater temp
2014-Nov-26 22:34N 64°52' E 011°16'8 8.2
2014-Nov-26 21:31N 64°57' E 011°31'91 8.3
2014-Nov-26 10:34N 66°21' E 012°57'9 9.0
2014-Nov-26 09:31N 66°30' E 012°59'2 0.1
2014-Nov-25 09:25N 66°29' E 012°59'8 9.0
2014-Nov-25 08:32N 66°21' E 012°58'93 8.5
2014-Nov-24 21:34N 64°56' E 011°25'371 7.7
2014-Nov-22 21:33N 59°27' E 005°14'9 8.3
2014-Nov-22 20:29N 59°19' E 005°20'8 9.0
2014-Nov-22 19:33N 59°11' E 005°22'9 8.7
2014-Nov-22 18:33N 59°02' E 005°20'9 9.2
2014-Nov-22 17:33N 58°53' E 005°23'11 8.9
2014-Nov-22 16:22N 58°42' E 005°27'12 9.5
2014-Nov-22 15:05N 58°32' E 005°38'5 9.5
2014-Nov-22 14:33N 58°28' E 005°45'8 8.5
2014-Nov-22 13:34N 58°24' E 005°60'3 2.7
2014-Nov-22 12:33N 58°27' E 005°60'0 0.0
2014-Nov-22 11:33N 58°27' E 005°60'0 0.0
2014-Nov-22 10:34N 58°27' E 005°60'0 0.0
2014-Nov-22 09:33N 58°27' E 005°60'0 0.0
2014-Nov-22 08:34N 58°27' E 005°60'0 0.0
2014-Nov-22 07:34N 58°27' E 005°60'0 0.0
2014-Nov-22 06:34N 58°27' E 005°60'0 0.0
2014-Nov-22 05:34N 58°27' E 005°60'0 0.0
2014-Nov-22 04:33N 58°27' E 005°60'0 0.0
2014-Nov-22 03:33N 58°27' E 005°60'0 0.0
2014-Nov-22 02:33N 58°27' E 005°60'0 0.0
2014-Nov-22 01:33N 58°27' E 005°60'0 0.0
2014-Nov-22 00:33N 58°27' E 005°60'0 0.0
2014-Nov-21 23:33N 58°27' E 005°60'0 0.0
2014-Nov-21 22:34N 58°27' E 005°60'0 0.0
2014-Nov-21 21:33N 58°27' E 005°60'0 0.0
2014-Nov-21 20:34N 58°27' E 005°60'0 0.0
2014-Nov-21 19:33N 58°27' E 005°60'0 0.0
2014-Nov-21 18:33N 58°27' E 005°60'0 0.0
2014-Nov-21 17:34N 58°27' E 005°60'0 0.4
2014-Nov-21 16:34N 58°27' E 005°59'9 8.9
2014-Nov-21 15:33N 58°19' E 006°07'8 7.9
2014-Nov-21 14:33N 58°13' E 006°17'9 8.9
2014-Nov-21 13:33N 58°07' E 006°29'56 8.9
2014-Nov-21 07:18N 58°04' E 008°14'810.5
2014-Nov-21 06:33N 58°08' E 008°27'1110.8
2014-Nov-21 05:33N 58°14' E 008°44'  
2014-Nov-18 17:25N 58°47' E 010°47'7 8.2
2014-Nov-18 16:33N 58°41' E 010°50'9 8.5
2014-Nov-18 15:33N 58°32' E 010°53'9 9.1
2014-Nov-18 14:33N 58°23' E 010°58'9 9.3
2014-Nov-18 13:33N 58°14' E 011°01'30 4.1
2014-Nov-18 06:20N 57°46' E 010°42'  

Dump ship's entire track history